createdAt,value
2019-06-10T00:01:08.050Z,0
2019-06-10T00:07:24.100Z,0
2019-06-10T00:10:32.299Z,0
2019-06-10T00:13:38.428Z,0
2019-06-10T00:16:44.743Z,0
2019-06-10T00:23:08.756Z,0
2019-06-10T00:29:25.272Z,0
2019-06-10T00:32:34.492Z,0
2019-06-10T00:35:43.033Z,0
2019-06-10T00:38:51.649Z,0
2019-06-10T00:45:22.215Z,0
2019-06-10T00:48:34.878Z,0
2019-06-10T00:54:51.712Z,0
2019-06-10T01:01:15.463Z,0
2019-06-10T01:04:24.502Z,0
2019-06-10T01:07:32.906Z,0
2019-06-10T01:10:43.232Z,0
2019-06-10T01:13:51.988Z,0
2019-06-10T01:16:58.155Z,0
2019-06-10T01:20:07.860Z,0
2019-06-10T01:23:21.396Z,0
2019-06-10T01:26:27.816Z,0
2019-06-10T01:29:34.386Z,0
2019-06-10T01:32:42.785Z,0
2019-06-10T01:35:51.295Z,0
2019-06-10T01:38:57.589Z,0
2019-06-10T01:42:03.912Z,0
2019-06-10T01:45:18.204Z,0
2019-06-10T01:48:48.762Z,0
2019-06-10T01:51:57.327Z,0
2019-06-10T01:55:04.560Z,0
2019-06-10T01:58:23.548Z,0.4
2019-06-10T02:01:32.445Z,0
2019-06-10T02:04:40.990Z,0
2019-06-10T02:07:47.342Z,0
2019-06-10T02:10:54.026Z,0
2019-06-10T02:14:02.746Z,0
2019-06-10T02:17:10.206Z,0
2019-06-10T02:20:25.816Z,0
2019-06-10T02:23:34.318Z,0
2019-06-10T02:26:42.855Z,0
2019-06-10T02:29:51.289Z,0.1
2019-06-10T02:32:57.439Z,0.1
2019-06-10T02:36:07.549Z,0.2
2019-06-10T02:39:43.726Z,0.3
2019-06-10T02:45:56.285Z,0.5
2019-06-10T02:50:09.898Z,200.2
2019-06-10T02:53:43.913Z,227.5
2019-06-10T02:56:54.248Z,230.4
2019-06-10T03:00:15.603Z,233.3
2019-06-10T03:03:57.135Z,234.7
2019-06-10T03:07:06.330Z,237.6
2019-06-10T03:10:33.852Z,239
2019-06-10T03:13:45.527Z,244.8
2019-06-10T03:16:54.025Z,249.1
2019-06-10T03:20:02.826Z,253.4
2019-06-10T03:23:09.072Z,256.3
2019-06-10T03:26:17.237Z,247.7
2019-06-10T03:29:30.068Z,263.5
2019-06-10T03:32:49.754Z,269.3
2019-06-10T03:35:58.695Z,276.5
2019-06-10T03:39:05.665Z,269.3
2019-06-10T03:42:14.389Z,280.8
2019-06-10T03:45:28.965Z,309.6
2019-06-10T03:48:36.136Z,324
2019-06-10T03:51:45.144Z,341.3
2019-06-10T03:54:54.310Z,351.4
2019-06-10T03:58:02.833Z,360
2019-06-10T04:01:08.996Z,368.6
2019-06-10T04:04:17.313Z,365.8
2019-06-10T04:07:36.057Z,361.4
2019-06-10T04:13:50.451Z,367.2
2019-06-10T04:16:56.707Z,371.5
2019-06-10T04:20:22.999Z,394.6
2019-06-10T04:23:35.917Z,385.9
2019-06-10T04:26:44.563Z,377.3
2019-06-10T04:29:52.911Z,339.8
2019-06-10T04:32:59.035Z,288
2019-06-10T04:36:06.098Z,446.4
2019-06-10T04:39:14.779Z,361.4
2019-06-10T04:45:35.497Z,357.1
2019-06-10T04:48:45.757Z,358.6
2019-06-10T04:51:54.175Z,360
2019-06-10T04:55:03.215Z,349.9
2019-06-10T04:58:09.368Z,344.2
2019-06-10T05:01:15.533Z,344.2
2019-06-10T05:04:30.521Z,351.4
2019-06-10T05:07:42.588Z,338.4
2019-06-10T05:13:56.271Z,348.5
2019-06-10T05:17:05.218Z,348.5
2019-06-10T05:20:13.699Z,345.6
2019-06-10T05:23:24.852Z,341.3
2019-06-10T05:26:36.278Z,325.4
2019-06-10T05:29:42.877Z,337
2019-06-10T05:32:47.168Z,334.1
2019-06-10T05:35:53.559Z,331.2
2019-06-10T05:38:57.856Z,332.6
2019-06-10T05:42:04.500Z,326.9
2019-06-10T05:45:08.707Z,325.4
2019-06-10T05:48:18.098Z,313.9
2019-06-10T05:51:30.657Z,313.9
2019-06-10T05:54:38.809Z,326.9
2019-06-10T05:57:45.593Z,313.9
2019-06-10T06:00:49.929Z,319.7
2019-06-10T06:03:56.802Z,309.6
2019-06-10T06:07:03.583Z,306.7
2019-06-10T06:10:07.892Z,257.8
2019-06-10T06:13:13.969Z,308.2
2019-06-10T06:16:18.182Z,308.2
2019-06-10T06:19:24.445Z,309.6
2019-06-10T06:22:36.268Z,318.2
2019-06-10T06:25:47.859Z,296.6
2019-06-10T06:28:54.868Z,313.9
2019-06-10T06:31:59.073Z,315.4
2019-06-10T06:35:05.685Z,309.6
2019-06-10T06:38:09.931Z,298.1
2019-06-10T06:41:16.727Z,302.4
2019-06-10T06:44:23.179Z,306.7
2019-06-10T06:47:29.774Z,311
2019-06-10T06:51:08.601Z,272.2
2019-06-10T06:54:15.976Z,256.3
2019-06-10T06:57:22.225Z,253.4
2019-06-10T07:01:10.731Z,250.6
2019-06-10T07:04:18.282Z,249.1
2019-06-10T07:07:23.445Z,246.2
2019-06-10T07:10:27.769Z,246.2
2019-06-10T07:13:41.527Z,250.6
2019-06-10T07:16:49.720Z,247.7
2019-06-10T07:19:58.867Z,249.1
2019-06-10T07:23:05.723Z,247.7
2019-06-10T07:26:10.045Z,252
2019-06-10T07:29:16.492Z,253.4
2019-06-10T07:32:23.338Z,250.6
2019-06-10T07:35:27.557Z,250.6
2019-06-10T07:38:41.563Z,254.9
2019-06-10T07:41:56.097Z,257.8
2019-06-10T07:45:03.085Z,266.4
2019-06-10T07:48:07.245Z,240.5
2019-06-10T07:51:14.211Z,280.8
2019-06-10T07:54:18.420Z,270.7
2019-06-10T07:57:25.512Z,246.2
2019-06-10T08:00:29.788Z,257.8
2019-06-10T08:03:41.792Z,288
2019-06-10T08:06:53.668Z,285.1
2019-06-10T08:09:57.934Z,263.5
2019-06-10T08:13:04.220Z,289.4
2019-06-10T08:16:08.431Z,282.2
2019-06-10T08:19:41.617Z,285.1
2019-06-10T08:22:59.205Z,277.9
2019-06-10T08:26:05.948Z,280.8
2019-06-10T08:29:12.546Z,277.9
2019-06-10T08:32:16.952Z,265
2019-06-10T08:35:55.993Z,276.5
2019-06-10T08:39:06.961Z,276.5
2019-06-10T08:42:18.344Z,267.8
2019-06-10T08:45:24.098Z,275
2019-06-10T08:48:28.321Z,272.2
2019-06-10T08:51:33.762Z,257.8
2019-06-10T08:54:46.011Z,267.8
2019-06-10T08:57:57.485Z,257.8
2019-06-10T09:01:03.643Z,267.8
2019-06-10T09:04:08.052Z,252
2019-06-10T09:07:13.802Z,253.4
2019-06-10T09:10:18.123Z,256.3
2019-06-10T09:13:25.313Z,253.4
2019-06-10T09:16:31.993Z,253.4
2019-06-10T09:19:36.721Z,254.9
2019-06-10T09:23:18.909Z,250.6
2019-06-10T09:26:29.121Z,256.3
2019-06-10T09:29:36.718Z,254.9
2019-06-10T09:33:00.053Z,257.8
2019-06-10T09:36:07.992Z,265
2019-06-10T09:39:13.821Z,256.3
2019-06-10T09:42:18.039Z,250.6
2019-06-10T09:45:23.685Z,244.8
2019-06-10T09:48:27.897Z,239
2019-06-10T09:51:33.679Z,234.7
2019-06-10T09:54:37.902Z,233.3
2019-06-10T09:58:03.733Z,233.3
2019-06-10T10:01:08.147Z,233.3
2019-06-10T10:04:13.679Z,234.7
2019-06-10T10:07:18.008Z,236.2
2019-06-10T10:10:25.215Z,237.6
2019-06-10T10:13:29.887Z,244.8
2019-06-10T10:16:38.746Z,246.2
2019-06-10T10:19:57.530Z,246.2
2019-06-10T10:23:03.977Z,246.2
2019-06-10T10:26:08.199Z,254.9
2019-06-10T10:29:14.251Z,256.3
2019-06-10T10:32:18.477Z,256.3
2019-06-10T10:35:25.672Z,253.4
2019-06-10T10:38:29.877Z,252
2019-06-10T10:41:34.211Z,244.8
2019-06-10T10:44:38.449Z,240.5
2019-06-10T10:47:44.960Z,241.9
2019-06-10T10:50:57.006Z,241.9
2019-06-10T10:54:36.411Z,241.9
2019-06-10T10:57:41.486Z,241.9
2019-06-10T11:00:57.902Z,204.5
2019-06-10T11:04:06.801Z,246.2
2019-06-10T11:07:14.223Z,247.7
2019-06-10T11:10:18.572Z,250.6
2019-06-10T11:13:23.570Z,257.8
2019-06-10T11:16:27.785Z,260.6
2019-06-10T11:19:34.162Z,254.9
2019-06-10T11:22:38.381Z,252
2019-06-10T11:25:58.987Z,253.4
2019-06-10T11:29:04.328Z,240.5
2019-06-10T11:32:08.544Z,227.5
2019-06-10T11:35:13.481Z,230.4
2019-06-10T11:38:17.807Z,231.8
2019-06-10T11:41:24.966Z,234.7
2019-06-10T11:44:29.309Z,234.7
2019-06-10T11:47:36.498Z,243.4
2019-06-10T11:50:47.063Z,243.4
2019-06-10T11:54:04.455Z,244.8
2019-06-10T11:57:09.249Z,243.4
2019-06-10T12:00:18.662Z,244.8
2019-06-10T12:03:25.755Z,243.4
2019-06-10T12:06:30.104Z,240.5
2019-06-10T12:09:37.850Z,243.4
2019-06-10T12:12:44.987Z,237.6
2019-06-10T12:17:34.235Z,240.5
2019-06-10T12:21:14.202Z,246.2
2019-06-10T12:24:19.034Z,244.8
2019-06-10T12:27:26.008Z,240.5
2019-06-10T12:30:30.267Z,240.5
2019-06-10T12:33:38.039Z,249.1
2019-06-10T12:36:42.275Z,246.2
2019-06-10T12:39:46.505Z,254.9
2019-06-10T12:42:56.680Z,254.9
2019-06-10T12:46:09.429Z,256.3
2019-06-10T12:49:19.620Z,253.4
2019-06-10T12:52:24.369Z,256.3
2019-06-10T12:55:47.655Z,257.8
2019-06-10T12:59:02.762Z,254.9
2019-06-10T13:02:34.558Z,254.9
2019-06-10T13:05:38.978Z,256.3
2019-06-10T13:08:47.550Z,259.2
2019-06-10T13:11:55.669Z,260.6
2019-06-10T13:15:09.470Z,257.8
2019-06-10T13:18:23.472Z,237.6
2019-06-10T13:21:28.034Z,239
2019-06-10T13:24:35.112Z,234.7
2019-06-10T13:27:39.444Z,230.4
2019-06-10T13:30:45.926Z,229
2019-06-10T13:33:52.736Z,229
2019-06-10T13:36:58.732Z,229
2019-06-10T13:40:13.920Z,230.4
2019-06-10T13:43:18.243Z,236.2
2019-06-10T13:46:26.072Z,239
2019-06-10T13:49:30.377Z,240.5
2019-06-10T13:52:36.952Z,241.9
2019-06-10T13:55:41.169Z,243.4
2019-06-10T13:58:47.634Z,243.4
2019-06-10T14:01:54.425Z,244.8
2019-06-10T14:05:00.056Z,244.8
2019-06-10T14:08:24.292Z,246.2
2019-06-10T14:11:34.479Z,247.7
2019-06-10T14:14:39.162Z,246.2
2019-06-10T14:17:45.728Z,246.2
2019-06-10T14:20:52.775Z,246.2
2019-06-10T14:23:57.442Z,246.2
2019-06-10T14:27:09.112Z,246.2
2019-06-10T14:30:27.522Z,246.2
2019-06-10T14:33:34.276Z,246.2
2019-06-10T14:36:38.590Z,244.8
2019-06-10T14:39:43.628Z,244.8
2019-06-10T14:42:47.854Z,244.8
2019-06-10T14:45:54.809Z,244.8
2019-06-10T14:48:59.132Z,243.4
2019-06-10T14:52:12.214Z,241.9
2019-06-10T14:55:23.073Z,240.5
2019-06-10T14:58:27.385Z,241.9
2019-06-10T15:01:33.397Z,239
2019-06-10T15:04:37.734Z,239
2019-06-10T15:07:43.621Z,240.5
2019-06-10T15:10:47.822Z,240.5
2019-06-10T15:13:55.315Z,240.5
2019-06-10T15:17:02.538Z,239
2019-06-10T15:20:08.079Z,240.5
2019-06-10T15:23:22.945Z,240.5
2019-06-10T15:26:27.612Z,239
2019-06-10T15:29:34.043Z,239
2019-06-10T15:32:38.343Z,239
2019-06-10T15:35:48.705Z,239
2019-06-10T15:38:55.609Z,239
2019-06-10T15:41:59.805Z,239
2019-06-10T15:45:06.635Z,237.6
2019-06-10T15:48:24.900Z,237.6
2019-06-10T15:51:29.671Z,237.6
2019-06-10T15:54:36.136Z,237.6
2019-06-10T15:57:47.342Z,239
2019-06-10T16:00:54.429Z,237.6
2019-06-10T16:03:58.632Z,239
2019-06-10T16:07:03.872Z,239
2019-06-10T16:10:08.077Z,239
2019-06-10T16:13:16.372Z,239
2019-06-10T16:16:23.725Z,239
2019-06-10T16:19:28.014Z,239
2019-06-10T16:22:32.236Z,239
2019-06-10T16:25:36.431Z,239
2019-06-10T16:28:42.687Z,237.6
2019-06-10T16:31:47.148Z,236.2
2019-06-10T16:34:53.514Z,236.2
2019-06-10T16:37:58.237Z,237.6
2019-06-10T16:41:04.811Z,236.2
2019-06-10T16:44:09.104Z,237.6
2019-06-10T16:47:16.935Z,236.2
2019-06-10T16:50:28.138Z,236.2
2019-06-10T16:53:37.138Z,236.2
2019-06-10T16:56:44.061Z,236.2
2019-06-10T16:59:48.262Z,236.2
2019-06-10T17:02:55.120Z,236.2
2019-06-10T17:05:59.325Z,236.2
2019-06-10T17:09:06.238Z,236.2
2019-06-10T17:12:12.464Z,236.2
2019-06-10T17:15:16.842Z,236.2
2019-06-10T17:18:30.006Z,234.7
2019-06-10T17:21:37.328Z,236.2
2019-06-10T17:24:43.502Z,234.7
2019-06-10T17:27:47.715Z,234.7
2019-06-10T17:30:54.186Z,236.2
2019-06-10T17:33:58.475Z,234.7
2019-06-10T17:37:05.795Z,234.7
2019-06-10T17:40:10.003Z,233.3
2019-06-10T17:43:16.666Z,234.7
2019-06-10T17:46:27.889Z,233.3
2019-06-10T17:49:37.998Z,233.3
2019-06-10T17:52:44.398Z,233.3
2019-06-10T17:55:48.605Z,233.3
2019-06-10T17:58:59.000Z,231.8
2019-06-10T18:02:05.757Z,233.3
2019-06-10T18:05:09.964Z,1.2
2019-06-10T18:08:16.449Z,1.2
2019-06-10T18:11:22.947Z,1.1
2019-06-10T18:14:37.483Z,1.1
2019-06-10T18:17:43.855Z,1.1
2019-06-10T18:20:48.063Z,1
2019-06-10T18:23:55.974Z,1
2019-06-10T18:27:06.450Z,1
2019-06-10T18:30:15.092Z,1
2019-06-10T18:33:19.383Z,1
2019-06-10T18:36:30.474Z,1
2019-06-10T18:39:43.718Z,1
2019-06-10T18:42:47.939Z,1
2019-06-10T18:45:54.905Z,1
2019-06-10T18:48:59.216Z,1
2019-06-10T18:52:06.306Z,1
2019-06-10T18:55:12.901Z,1
2019-06-10T18:58:17.199Z,1
2019-06-10T19:01:23.876Z,1
2019-06-10T19:04:29.005Z,1
2019-06-10T19:07:47.390Z,1
2019-06-10T19:10:54.653Z,1
2019-06-10T19:14:03.921Z,1
2019-06-10T19:17:08.214Z,1
2019-06-10T19:20:14.804Z,1
2019-06-10T19:23:19.010Z,1
2019-06-10T19:26:25.650Z,1
2019-06-10T19:29:51.863Z,1
2019-06-10T19:32:58.796Z,1
2019-06-10T19:36:05.480Z,1
2019-06-10T19:39:09.723Z,1
2019-06-10T19:42:16.780Z,1
2019-06-10T19:45:23.380Z,1
2019-06-10T19:48:27.600Z,1
2019-06-10T19:51:37.338Z,1
2019-06-10T19:54:48.668Z,1
2019-06-10T19:57:52.938Z,1
2019-06-10T20:00:57.219Z,1
2019-06-10T20:04:03.733Z,1
2019-06-10T20:07:07.965Z,1
2019-06-10T20:10:14.524Z,1
2019-06-10T20:13:18.741Z,1
2019-06-10T20:16:25.399Z,1
2019-06-10T20:19:29.620Z,1
2019-06-10T20:22:37.303Z,1
2019-06-10T20:25:48.733Z,1
2019-06-10T20:28:56.721Z,1
2019-06-10T20:32:00.941Z,1
2019-06-10T20:35:05.156Z,1
2019-06-10T20:38:09.374Z,1
2019-06-10T20:41:16.152Z,1
2019-06-10T20:44:22.854Z,1
2019-06-10T20:47:29.704Z,1
2019-06-10T20:50:36.521Z,1
2019-06-10T20:53:49.747Z,1
2019-06-10T20:56:56.504Z,1
2019-06-10T21:00:26.564Z,1
2019-06-10T21:03:33.542Z,1
2019-06-10T21:06:38.889Z,1
2019-06-10T21:09:50.473Z,1
2019-06-10T21:12:57.015Z,1
2019-06-10T21:16:04.119Z,1
2019-06-10T21:19:08.429Z,1
2019-06-10T21:22:14.175Z,1
2019-06-10T21:25:18.378Z,1
2019-06-10T21:28:22.637Z,1
2019-06-10T21:31:32.413Z,1
2019-06-10T21:34:36.723Z,1
2019-06-10T21:37:48.309Z,1
2019-06-10T21:40:55.460Z,1
2019-06-10T21:44:03.608Z,1
2019-06-10T21:47:13.550Z,1
2019-06-10T21:50:17.763Z,1
2019-06-10T21:53:23.604Z,1
2019-06-10T21:56:27.809Z,1
2019-06-10T21:59:33.367Z,1
2019-06-10T22:02:37.587Z,1
2019-06-10T22:05:47.466Z,1
2019-06-10T22:08:57.314Z,1
2019-06-10T22:12:04.067Z,1
2019-06-10T22:15:08.294Z,1
2019-06-10T22:18:13.937Z,1
2019-06-10T22:21:18.159Z,1
2019-06-10T22:24:24.995Z,1
2019-06-10T22:27:29.281Z,1
2019-06-10T22:30:35.703Z,1
2019-06-10T22:33:39.946Z,1
2019-06-10T22:36:49.621Z,1
2019-06-10T22:40:03.875Z,1
2019-06-10T22:43:08.996Z,1
2019-06-10T22:46:15.660Z,1
2019-06-10T22:49:19.882Z,1
2019-06-10T22:52:26.797Z,1
2019-06-10T22:55:33.336Z,1
2019-06-10T22:58:37.546Z,1
2019-06-10T23:01:43.620Z,1
2019-06-10T23:04:49.100Z,1
2019-06-10T23:08:03.932Z,1
2019-06-10T23:11:08.135Z,1
2019-06-10T23:14:13.599Z,1
2019-06-10T23:17:17.820Z,1
2019-06-10T23:20:24.383Z,1
2019-06-10T23:23:28.586Z,1
2019-06-10T23:26:34.469Z,1
2019-06-10T23:29:38.690Z,1
2019-06-10T23:32:45.161Z,1
2019-06-10T23:35:50.277Z,1
2019-06-10T23:39:03.891Z,1
2019-06-10T23:42:08.256Z,1
2019-06-10T23:45:14.626Z,1
2019-06-10T23:48:18.946Z,1
2019-06-10T23:51:25.727Z,1
2019-06-10T23:54:32.169Z,1
2019-06-10T23:57:36.623Z,1
